Tallahassee Regional Airport
KTLH : now visible

Airfield :











YOU CAN JOIN US ON...

 
LOGIN :

Register | Disclaimer

   EN    FR    IT 

 









Legend :    VFR   Marginal VFR   IFR   Intensive IFR   Very Intensive IFR
Visi :
Ceiling :
>= 8 km
>= 3000ft
5 to 8 km
1000 to 3000 ft
1500m to 5 km
500 to 1000 ft
800 to 1500m
200 to 500 ft
< 800m
< 200 ft
Symbols :   Thunderstorms  Fog  Heavy snow  Heavy precipitations  Wind > 20 kt







- Airport Elevation : 81 ft
- IATA code : TLH


KTLH - Tallahassee Regional

CURRENT METAR :
  • 260153Z 05005KT 10SM BKN039 28/26 A2998 RMK AO2 SLP151 T02780256 $

EXPIRED METARs :
  • 260053Z 00000KT 10SM SCT040 SCT048 BKN110 28/25 A2996 RMK AO2 SLP144 T02780250 $
  • 252353Z 30003KT 10SM SCT042 BKN100 28/25 A2993 RMK AO2 LTG DSNT NW SLP134 60000 T02780250 10322 20278 53001 $

TAF KTLH
Valid from the 26 at 00:00 until the 27 at 00:00 UTC


252321Z 2600/2624 24003KT P6SM SCT045 BKN060
FM261000 10004KT P6SM BKN015
FM261500 12007KT P6SM BKN040
FM261800 17006KT P6SM VCTS BKN040CB
No reported NOTAMs for that airfield.



MET'MAP, your aeronautical weather chart ! - Copyright ORBIFLY December 2007 - Disclaimer

ORBIFLY MET'MAP TEAM :

Programming & Development : Alexandra Zaïnal
Concept & Development : Baudouin d'Aumeries
Co-Development & Prog : Marc-Olivier Méhu
Technical & hardware support : Manuel Goepfert

Contact : metmap@orbifly.com




SOURCES & CREDITS :

   NOAA       Earth
Advisory